< < Back
Terminal Aerodrome Forecast


Current Version              Previous Versions:   1  2  3  4  5  6  7  8  9  

Terminal Aerodrome Forecast

951
FTUS42 KCAE 272000 AAA
TAFCAE
TAF AMD
KCAE 272052Z 2721/2818 30010G17KT P6SM SCT070
     FM272300 30006KT P6SM FEW080
     FM281400 01008KT P6SM SKC=



Latest METAR

111
SAUS80 KWBC 280100 CCA
MTRCAE
METAR KCAE 280056Z 33008KT 10SM CLR 07/M04 A2995 RMK AO2 SLP143
T00721039


USA.gov is the U.S. government's official web portal to all federal, state and local government web resources and services.